sensor_id;sensor_type;location;lat;lon;timestamp;temperature;humidity
17370;DHT22;8802;52.402;4.920;2022-08-16T00:00:32;25.20;78.00
17370;DHT22;8802;52.402;4.920;2022-08-16T00:03:00;25.20;77.90
17370;DHT22;8802;52.402;4.920;2022-08-16T00:05:28;25.20;77.80
17370;DHT22;8802;52.402;4.920;2022-08-16T00:07:56;25.20;77.80
17370;DHT22;8802;52.402;4.920;2022-08-16T00:10:25;25.10;77.60
17370;DHT22;8802;52.402;4.920;2022-08-16T00:12:52;25.20;77.90
17370;DHT22;8802;52.402;4.920;2022-08-16T00:15:22;25.20;77.90
17370;DHT22;8802;52.402;4.920;2022-08-16T00:17:51;25.10;78.00
17370;DHT22;8802;52.402;4.920;2022-08-16T00:20:18;25.10;78.00
17370;DHT22;8802;52.402;4.920;2022-08-16T00:22:47;25.10;78.10
17370;DHT22;8802;52.402;4.920;2022-08-16T00:25:15;25.10;78.10
17370;DHT22;8802;52.402;4.920;2022-08-16T00:27:42;25.10;78.10
17370;DHT22;8802;52.402;4.920;2022-08-16T00:30:12;25.10;78.30
17370;DHT22;8802;52.402;4.920;2022-08-16T00:32:41;25.10;78.40
17370;DHT22;8802;52.402;4.920;2022-08-16T00:35:12;25.00;78.40
17370;DHT22;8802;52.402;4.920;2022-08-16T00:37:39;25.00;78.50
17370;DHT22;8802;52.402;4.920;2022-08-16T00:40:07;25.00;79.30
17370;DHT22;8802;52.402;4.920;2022-08-16T00:42:35;25.00;78.40
17370;DHT22;8802;52.402;4.920;2022-08-16T00:45:08;25.00;78.50
17370;DHT22;8802;52.402;4.920;2022-08-16T00:47:42;25.00;78.60
17370;DHT22;8802;52.402;4.920;2022-08-16T00:50:13;25.00;78.90
17370;DHT22;8802;52.402;4.920;2022-08-16T00:52:40;25.00;78.80
17370;DHT22;8802;52.402;4.920;2022-08-16T00:55:07;25.00;78.80
17370;DHT22;8802;52.402;4.920;2022-08-16T00:57:35;24.90;78.80
17370;DHT22;8802;52.402;4.920;2022-08-16T01:00:04;24.90;78.90
17370;DHT22;8802;52.402;4.920;2022-08-16T01:02:31;24.90;78.80
17370;DHT22;8802;52.402;4.920;2022-08-16T01:04:58;24.90;78.80
17370;DHT22;8802;52.402;4.920;2022-08-16T01:07:27;24.90;78.90
17370;DHT22;8802;52.402;4.920;2022-08-16T01:09:54;24.90;79.10
17370;DHT22;8802;52.402;4.920;2022-08-16T01:12:21;24.80;79.00
17370;DHT22;8802;52.402;4.920;2022-08-16T01:14:51;24.80;79.00
17370;DHT22;8802;52.402;4.920;2022-08-16T01:17:20;24.80;79.10
17370;DHT22;8802;52.402;4.920;2022-08-16T01:19:50;24.80;79.20
17370;DHT22;8802;52.402;4.920;2022-08-16T01:22:24;24.80;79.40
17370;DHT22;8802;52.402;4.920;2022-08-16T01:24:57;24.80;79.30
17370;DHT22;8802;52.402;4.920;2022-08-16T01:27:29;24.80;79.40
17370;DHT22;8802;52.402;4.920;2022-08-16T01:30:00;24.80;79.40
17370;DHT22;8802;52.402;4.920;2022-08-16T01:32:29;24.80;79.50
17370;DHT22;8802;52.402;4.920;2022-08-16T01:34:56;24.80;79.70
17370;DHT22;8802;52.402;4.920;2022-08-16T01:37:23;24.70;79.70
17370;DHT22;8802;52.402;4.920;2022-08-16T01:39:50;24.70;79.90
17370;DHT22;8802;52.402;4.920;2022-08-16T01:42:19;24.70;79.90
17370;DHT22;8802;52.402;4.920;2022-08-16T01:44:45;24.70;80.00
17370;DHT22;8802;52.402;4.920;2022-08-16T01:47:12;24.70;80.00
17370;DHT22;8802;52.402;4.920;2022-08-16T01:49:41;24.70;80.10
17370;DHT22;8802;52.402;4.920;2022-08-16T01:52:12;24.70;80.20
17370;DHT22;8802;52.402;4.920;2022-08-16T01:54:40;24.70;80.30
17370;DHT22;8802;52.402;4.920;2022-08-16T01:57:08;24.70;80.40
17370;DHT22;8802;52.402;4.920;2022-08-16T01:59:37;24.60;80.30
17370;DHT22;8802;52.402;4.920;2022-08-16T02:02:04;24.60;80.50
17370;DHT22;8802;52.402;4.920;2022-08-16T02:04:33;24.60;80.50
17370;DHT22;8802;52.402;4.920;2022-08-16T02:07:00;24.60;80.60
17370;DHT22;8802;52.402;4.920;2022-08-16T02:09:29;24.60;80.70
17370;DHT22;8802;52.402;4.920;2022-08-16T02:11:58;24.60;80.70
17370;DHT22;8802;52.402;4.920;2022-08-16T02:14:28;24.60;80.80
17370;DHT22;8802;52.402;4.920;2022-08-16T02:16:58;24.60;80.90
17370;DHT22;8802;52.402;4.920;2022-08-16T02:19:28;24.50;81.00
17370;DHT22;8802;52.402;4.920;2022-08-16T02:21:57;24.50;81.00
17370;DHT22;8802;52.402;4.920;2022-08-16T02:24:24;24.50;81.20
17370;DHT22;8802;52.402;4.920;2022-08-16T02:26:51;24.50;81.30
17370;DHT22;8802;52.402;4.920;2022-08-16T02:29:18;24.50;81.40
17370;DHT22;8802;52.402;4.920;2022-08-16T02:31:46;24.50;81.40
17370;DHT22;8802;52.402;4.920;2022-08-16T02:34:14;24.50;81.40
17370;DHT22;8802;52.402;4.920;2022-08-16T02:36:42;24.40;81.50
17370;DHT22;8802;52.402;4.920;2022-08-16T02:39:11;24.50;81.70
17370;DHT22;8802;52.402;4.920;2022-08-16T02:41:39;24.40;81.70
17370;DHT22;8802;52.402;4.920;2022-08-16T02:44:08;24.40;81.90
17370;DHT22;8802;52.402;4.920;2022-08-16T02:46:36;24.40;81.90
17370;DHT22;8802;52.402;4.920;2022-08-16T02:49:04;24.40;81.90
17370;DHT22;8802;52.402;4.920;2022-08-16T02:51:33;24.40;82.00
17370;DHT22;8802;52.402;4.920;2022-08-16T02:54:00;24.40;82.00
17370;DHT22;8802;52.402;4.920;2022-08-16T02:56:27;24.40;82.20
17370;DHT22;8802;52.402;4.920;2022-08-16T02:58:55;24.40;82.00
17370;DHT22;8802;52.402;4.920;2022-08-16T03:01:24;24.40;82.00
17370;DHT22;8802;52.402;4.920;2022-08-16T03:03:52;24.40;82.20
17370;DHT22;8802;52.402;4.920;2022-08-16T03:06:20;24.40;82.30
17370;DHT22;8802;52.402;4.920;2022-08-16T03:08:50;24.40;82.30
17370;DHT22;8802;52.402;4.920;2022-08-16T03:11:17;24.40;82.40
17370;DHT22;8802;52.402;4.920;2022-08-16T03:13:45;24.40;82.30
17370;DHT22;8802;52.402;4.920;2022-08-16T03:16:14;24.30;82.20
17370;DHT22;8802;52.402;4.920;2022-08-16T03:18:41;24.30;82.30
17370;DHT22;8802;52.402;4.920;2022-08-16T03:21:08;24.30;82.30
17370;DHT22;8802;52.402;4.920;2022-08-16T03:23:37;24.30;82.40
17370;DHT22;8802;52.402;4.920;2022-08-16T03:26:05;24.30;82.50
17370;DHT22;8802;52.402;4.920;2022-08-16T03:28:32;24.30;82.50
17370;DHT22;8802;52.402;4.920;2022-08-16T03:30:59;24.30;82.50
17370;DHT22;8802;52.402;4.920;2022-08-16T03:33:27;24.30;82.70
17370;DHT22;8802;52.402;4.920;2022-08-16T03:35:54;24.30;82.70
17370;DHT22;8802;52.402;4.920;2022-08-16T03:38:25;24.30;82.80
17370;DHT22;8802;52.402;4.920;2022-08-16T03:40:52;24.30;82.80
17370;DHT22;8802;52.402;4.920;2022-08-16T03:43:22;24.30;83.00
17370;DHT22;8802;52.402;4.920;2022-08-16T03:45:51;24.30;83.20
17370;DHT22;8802;52.402;4.920;2022-08-16T03:48:18;24.20;83.20
17370;DHT22;8802;52.402;4.920;2022-08-16T03:50:45;24.20;83.20
17370;DHT22;8802;52.402;4.920;2022-08-16T03:53:12;24.20;83.30
17370;DHT22;8802;52.402;4.920;2022-08-16T03:55:39;24.20;83.30
17370;DHT22;8802;52.402;4.920;2022-08-16T03:58:06;24.10;83.30
17370;DHT22;8802;52.402;4.920;2022-08-16T04:00:34;24.20;83.50
17370;DHT22;8802;52.402;4.920;2022-08-16T04:03:03;24.20;83.70
17370;DHT22;8802;52.402;4.920;2022-08-16T04:05:32;24.10;83.80
17370;DHT22;8802;52.402;4.920;2022-08-16T04:08:00;24.10;83.80
17370;DHT22;8802;52.402;4.920;2022-08-16T04:10:27;24.10;83.80
17370;DHT22;8802;52.402;4.920;2022-08-16T04:12:55;24.10;83.90
17370;DHT22;8802;52.402;4.920;2022-08-16T04:15:23;24.10;84.00
17370;DHT22;8802;52.402;4.920;2022-08-16T04:17:55;24.10;84.00
17370;DHT22;8802;52.402;4.920;2022-08-16T04:20:23;24.10;84.20
17370;DHT22;8802;52.402;4.920;2022-08-16T04:22:51;24.10;84.10
17370;DHT22;8802;52.402;4.920;2022-08-16T04:25:18;24.00;84.10
17370;DHT22;8802;52.402;4.920;2022-08-16T04:27:45;24.00;84.20
17370;DHT22;8802;52.402;4.920;2022-08-16T04:30:15;24.00;84.20
17370;DHT22;8802;52.402;4.920;2022-08-16T04:32:42;24.00;84.30
17370;DHT22;8802;52.402;4.920;2022-08-16T04:35:13;24.00;84.30
17370;DHT22;8802;52.402;4.920;2022-08-16T04:37:41;23.90;84.30
17370;DHT22;8802;52.402;4.920;2022-08-16T04:40:09;23.90;84.30
17370;DHT22;8802;52.402;4.920;2022-08-16T04:42:36;23.90;84.30
17370;DHT22;8802;52.402;4.920;2022-08-16T04:45:06;23.90;84.30
17370;DHT22;8802;52.402;4.920;2022-08-16T04:47:33;23.90;84.40
17370;DHT22;8802;52.402;4.920;2022-08-16T04:50:00;23.90;84.60
17370;DHT22;8802;52.402;4.920;2022-08-16T04:52:28;23.90;84.70
17370;DHT22;8802;52.402;4.920;2022-08-16T04:54:55;23.90;84.70
17370;DHT22;8802;52.402;4.920;2022-08-16T04:57:22;23.90;84.70
17370;DHT22;8802;52.402;4.920;2022-08-16T04:59:49;23.90;84.80
17370;DHT22;8802;52.402;4.920;2022-08-16T05:02:15;23.90;84.80
17370;DHT22;8802;52.402;4.920;2022-08-16T05:04:42;23.90;84.70
17370;DHT22;8802;52.402;4.920;2022-08-16T05:07:09;23.90;84.70
17370;DHT22;8802;52.402;4.920;2022-08-16T05:09:37;23.90;84.80
17370;DHT22;8802;52.402;4.920;2022-08-16T05:12:04;23.90;84.90
17370;DHT22;8802;52.402;4.920;2022-08-16T05:14:31;23.90;85.00
17370;DHT22;8802;52.402;4.920;2022-08-16T05:16:58;23.90;85.00
17370;DHT22;8802;52.402;4.920;2022-08-16T05:19:25;23.90;85.80
17370;DHT22;8802;52.402;4.920;2022-08-16T05:21:52;23.90;85.00
17370;DHT22;8802;52.402;4.920;2022-08-16T05:24:20;23.90;85.10
17370;DHT22;8802;52.402;4.920;2022-08-16T05:26:48;23.90;85.80
17370;DHT22;8802;52.402;4.920;2022-08-16T05:29:15;23.90;85.90
17370;DHT22;8802;52.402;4.920;2022-08-16T05:31:41;23.90;85.20
17370;DHT22;8802;52.402;4.920;2022-08-16T05:34:08;23.90;85.20
17370;DHT22;8802;52.402;4.920;2022-08-16T05:36:36;23.90;85.20
17370;DHT22;8802;52.402;4.920;2022-08-16T05:39:05;23.90;85.20
17370;DHT22;8802;52.402;4.920;2022-08-16T05:41:32;23.80;85.30
17370;DHT22;8802;52.402;4.920;2022-08-16T05:44:00;23.90;85.30
17370;DHT22;8802;52.402;4.920;2022-08-16T05:46:27;23.90;85.50
17370;DHT22;8802;52.402;4.920;2022-08-16T05:48:54;23.90;85.30
17370;DHT22;8802;52.402;4.920;2022-08-16T05:51:21;23.90;85.40
17370;DHT22;8802;52.402;4.920;2022-08-16T05:53:47;23.90;85.50
17370;DHT22;8802;52.402;4.920;2022-08-16T05:56:14;23.90;85.50
17370;DHT22;8802;52.402;4.920;2022-08-16T05:58:41;23.90;85.70
17370;DHT22;8802;52.402;4.920;2022-08-16T06:01:09;23.90;85.70
17370;DHT22;8802;52.402;4.920;2022-08-16T06:03:36;23.90;85.70
17370;DHT22;8802;52.402;4.920;2022-08-16T06:06:03;23.90;85.70
17370;DHT22;8802;52.402;4.920;2022-08-16T06:08:30;23.90;85.80
17370;DHT22;8802;52.402;4.920;2022-08-16T06:10:57;24.00;85.90
17370;DHT22;8802;52.402;4.920;2022-08-16T06:13:24;23.90;85.80
17370;DHT22;8802;52.402;4.920;2022-08-16T06:15:50;24.00;85.80
17370;DHT22;8802;52.402;4.920;2022-08-16T06:18:20;24.00;86.10
17370;DHT22;8802;52.402;4.920;2022-08-16T06:20:47;24.00;86.10
17370;DHT22;8802;52.402;4.920;2022-08-16T06:23:13;24.10;86.20
17370;DHT22;8802;52.402;4.920;2022-08-16T06:25:40;24.10;86.30
17370;DHT22;8802;52.402;4.920;2022-08-16T06:28:09;24.10;86.30
17370;DHT22;8802;52.402;4.920;2022-08-16T06:30:37;24.20;86.40
17370;DHT22;8802;52.402;4.920;2022-08-16T06:33:04;24.20;86.50
17370;DHT22;8802;52.402;4.920;2022-08-16T06:35:32;24.20;86.50
17370;DHT22;8802;52.402;4.920;2022-08-16T06:38:01;24.30;86.60
17370;DHT22;8802;52.402;4.920;2022-08-16T06:40:27;24.30;86.40
17370;DHT22;8802;52.402;4.920;2022-08-16T06:42:54;24.40;86.30
17370;DHT22;8802;52.402;4.920;2022-08-16T06:45:21;24.40;86.30
17370;DHT22;8802;52.402;4.920;2022-08-16T06:47:49;24.50;86.10
17370;DHT22;8802;52.402;4.920;2022-08-16T06:50:16;24.60;86.30
17370;DHT22;8802;52.402;4.920;2022-08-16T06:52:45;24.60;86.10
17370;DHT22;8802;52.402;4.920;2022-08-16T06:55:14;24.70;86.30
17370;DHT22;8802;52.402;4.920;2022-08-16T06:57:41;24.80;86.10
17370;DHT22;8802;52.402;4.920;2022-08-16T07:00:11;24.80;85.90
17370;DHT22;8802;52.402;4.920;2022-08-16T07:02:39;24.90;85.80
17370;DHT22;8802;52.402;4.920;2022-08-16T07:05:07;25.00;85.60
17370;DHT22;8802;52.402;4.920;2022-08-16T07:07:35;25.00;85.50
17370;DHT22;8802;52.402;4.920;2022-08-16T07:10:04;25.10;85.40
17370;DHT22;8802;52.402;4.920;2022-08-16T07:12:31;25.20;85.30
17370;DHT22;8802;52.402;4.920;2022-08-16T07:14:58;25.20;85.20
17370;DHT22;8802;52.402;4.920;2022-08-16T07:17:26;25.30;85.10
17370;DHT22;8802;52.402;4.920;2022-08-16T07:19:54;25.40;84.90
17370;DHT22;8802;52.402;4.920;2022-08-16T07:22:21;25.40;85.60
17370;DHT22;8802;52.402;4.920;2022-08-16T07:24:48;25.40;84.80
17370;DHT22;8802;52.402;4.920;2022-08-16T07:27:16;25.50;84.70
17370;DHT22;8802;52.402;4.920;2022-08-16T07:29:43;25.50;84.80
17370;DHT22;8802;52.402;4.920;2022-08-16T07:32:10;25.60;84.80
17370;DHT22;8802;52.402;4.920;2022-08-16T07:34:38;25.60;84.80
17370;DHT22;8802;52.402;4.920;2022-08-16T07:37:07;25.60;84.70
17370;DHT22;8802;52.402;4.920;2022-08-16T07:39:35;25.70;84.80
17370;DHT22;8802;52.402;4.920;2022-08-16T07:42:03;25.70;84.70
17370;DHT22;8802;52.402;4.920;2022-08-16T07:44:31;25.80;84.70
17370;DHT22;8802;52.402;4.920;2022-08-16T07:46:58;25.90;84.70
17370;DHT22;8802;52.402;4.920;2022-08-16T07:49:25;25.90;84.50
17370;DHT22;8802;52.402;4.920;2022-08-16T07:51:52;26.00;84.50
17370;DHT22;8802;52.402;4.920;2022-08-16T07:54:19;26.00;84.20
17370;DHT22;8802;52.402;4.920;2022-08-16T07:56:46;26.10;84.20
17370;DHT22;8802;52.402;4.920;2022-08-16T07:59:13;26.10;84.10
17370;DHT22;8802;52.402;4.920;2022-08-16T08:01:41;26.20;84.10
17370;DHT22;8802;52.402;4.920;2022-08-16T08:04:08;26.20;84.10
17370;DHT22;8802;52.402;4.920;2022-08-16T08:06:38;26.30;83.90
17370;DHT22;8802;52.402;4.920;2022-08-16T08:09:06;26.30;83.70
17370;DHT22;8802;52.402;4.920;2022-08-16T08:11:33;26.30;83.50
17370;DHT22;8802;52.402;4.920;2022-08-16T08:14:01;26.40;83.40
17370;DHT22;8802;52.402;4.920;2022-08-16T08:16:28;26.50;83.40
17370;DHT22;8802;52.402;4.920;2022-08-16T08:18:57;26.50;83.30
17370;DHT22;8802;52.402;4.920;2022-08-16T08:21:24;26.60;83.00
17370;DHT22;8802;52.402;4.920;2022-08-16T08:23:51;26.60;82.70
17370;DHT22;8802;52.402;4.920;2022-08-16T08:26:18;26.70;82.60
17370;DHT22;8802;52.402;4.920;2022-08-16T08:28:46;26.70;82.50
17370;DHT22;8802;52.402;4.920;2022-08-16T08:31:13;26.80;82.60
17370;DHT22;8802;52.402;4.920;2022-08-16T08:33:40;26.80;82.30
17370;DHT22;8802;52.402;4.920;2022-08-16T08:36:09;26.90;82.00
17370;DHT22;8802;52.402;4.920;2022-08-16T08:38:40;26.90;82.40
17370;DHT22;8802;52.402;4.920;2022-08-16T08:41:08;27.00;81.70
17370;DHT22;8802;52.402;4.920;2022-08-16T08:43:35;27.10;81.20
17370;DHT22;8802;52.402;4.920;2022-08-16T08:46:02;27.10;81.20
17370;DHT22;8802;52.402;4.920;2022-08-16T08:48:29;27.10;81.40
17370;DHT22;8802;52.402;4.920;2022-08-16T08:50:56;27.10;80.90
17370;DHT22;8802;52.402;4.920;2022-08-16T08:53:25;27.20;81.00
17370;DHT22;8802;52.402;4.920;2022-08-16T08:55:52;27.20;80.60
17370;DHT22;8802;52.402;4.920;2022-08-16T08:58:19;27.30;80.70
17370;DHT22;8802;52.402;4.920;2022-08-16T09:00:46;27.30;80.90
17370;DHT22;8802;52.402;4.920;2022-08-16T09:03:13;27.40;80.80
17370;DHT22;8802;52.402;4.920;2022-08-16T09:05:40;27.40;80.70
17370;DHT22;8802;52.402;4.920;2022-08-16T09:08:07;27.50;80.30
17370;DHT22;8802;52.402;4.920;2022-08-16T09:10:35;27.50;80.50
17370;DHT22;8802;52.402;4.920;2022-08-16T09:13:03;27.60;80.40
17370;DHT22;8802;52.402;4.920;2022-08-16T09:15:31;27.70;80.10
17370;DHT22;8802;52.402;4.920;2022-08-16T09:17:58;27.70;80.20
17370;DHT22;8802;52.402;4.920;2022-08-16T09:20:26;27.80;79.90
17370;DHT22;8802;52.402;4.920;2022-08-16T09:22:54;27.80;79.50
17370;DHT22;8802;52.402;4.920;2022-08-16T09:25:21;27.90;79.30
17370;DHT22;8802;52.402;4.920;2022-08-16T09:27:50;27.90;79.40
17370;DHT22;8802;52.402;4.920;2022-08-16T09:30:17;28.00;80.30
17370;DHT22;8802;52.402;4.920;2022-08-16T09:32:45;28.00;79.50
17370;DHT22;8802;52.402;4.920;2022-08-16T09:35:12;28.10;78.70
17370;DHT22;8802;52.402;4.920;2022-08-16T09:37:38;28.20;78.60
17370;DHT22;8802;52.402;4.920;2022-08-16T09:40:08;28.20;78.50
17370;DHT22;8802;52.402;4.920;2022-08-16T09:42:35;28.30;78.50
17370;DHT22;8802;52.402;4.920;2022-08-16T09:45:05;28.30;78.30
17370;DHT22;8802;52.402;4.920;2022-08-16T09:47:33;28.40;78.00
17370;DHT22;8802;52.402;4.920;2022-08-16T09:50:08;28.50;77.30
17370;DHT22;8802;52.402;4.920;2022-08-16T09:52:35;28.50;76.70
17370;DHT22;8802;52.402;4.920;2022-08-16T09:55:03;28.60;76.60
17370;DHT22;8802;52.402;4.920;2022-08-16T09:57:30;28.60;76.00
17370;DHT22;8802;52.402;4.920;2022-08-16T09:59:57;28.70;76.10
17370;DHT22;8802;52.402;4.920;2022-08-16T10:02:27;28.80;76.20
17370;DHT22;8802;52.402;4.920;2022-08-16T10:04:55;28.90;76.20
17370;DHT22;8802;52.402;4.920;2022-08-16T10:07:23;28.90;77.00
17370;DHT22;8802;52.402;4.920;2022-08-16T10:09:50;29.00;75.60
17370;DHT22;8802;52.402;4.920;2022-08-16T10:12:17;29.10;75.50
17370;DHT22;8802;52.402;4.920;2022-08-16T10:15:01;29.20;75.00
17370;DHT22;8802;52.402;4.920;2022-08-16T10:17:30;29.20;74.80
17370;DHT22;8802;52.402;4.920;2022-08-16T10:19:57;29.30;74.30
17370;DHT22;8802;52.402;4.920;2022-08-16T10:22:24;29.30;73.80
17370;DHT22;8802;52.402;4.920;2022-08-16T10:24:51;29.40;74.10
17370;DHT22;8802;52.402;4.920;2022-08-16T10:27:18;29.40;73.80
17370;DHT22;8802;52.402;4.920;2022-08-16T10:29:45;29.40;73.40
17370;DHT22;8802;52.402;4.920;2022-08-16T10:32:12;29.50;72.90
17370;DHT22;8802;52.402;4.920;2022-08-16T10:34:40;29.50;72.60
17370;DHT22;8802;52.402;4.920;2022-08-16T10:37:07;29.60;72.60
17370;DHT22;8802;52.402;4.920;2022-08-16T10:39:34;29.70;72.80
17370;DHT22;8802;52.402;4.920;2022-08-16T10:42:01;29.80;72.10
17370;DHT22;8802;52.402;4.920;2022-08-16T10:44:28;29.90;71.70
17370;DHT22;8802;52.402;4.920;2022-08-16T10:46:56;30.00;71.20
17370;DHT22;8802;52.402;4.920;2022-08-16T10:49:23;30.00;70.50
17370;DHT22;8802;52.402;4.920;2022-08-16T10:51:51;30.10;70.40
17370;DHT22;8802;52.402;4.920;2022-08-16T10:54:19;30.20;69.60
17370;DHT22;8802;52.402;4.920;2022-08-16T10:56:45;30.30;69.20
17370;DHT22;8802;52.402;4.920;2022-08-16T10:59:12;30.30;68.40
17370;DHT22;8802;52.402;4.920;2022-08-16T11:01:39;30.40;68.10
17370;DHT22;8802;52.402;4.920;2022-08-16T11:04:06;30.40;67.80
17370;DHT22;8802;52.402;4.920;2022-08-16T11:06:33;30.50;68.00
17370;DHT22;8802;52.402;4.920;2022-08-16T11:09:01;30.60;67.50
17370;DHT22;8802;52.402;4.920;2022-08-16T11:11:28;30.60;67.30
17370;DHT22;8802;52.402;4.920;2022-08-16T11:13:55;30.70;67.50
17370;DHT22;8802;52.402;4.920;2022-08-16T11:16:22;30.70;67.50
17370;DHT22;8802;52.402;4.920;2022-08-16T11:18:49;30.80;67.00
17370;DHT22;8802;52.402;4.920;2022-08-16T11:21:16;30.90;66.40
17370;DHT22;8802;52.402;4.920;2022-08-16T11:23:45;30.90;65.60
17370;DHT22;8802;52.402;4.920;2022-08-16T11:26:13;30.90;65.20
17370;DHT22;8802;52.402;4.920;2022-08-16T11:28:40;31.00;64.70
17370;DHT22;8802;52.402;4.920;2022-08-16T11:31:07;31.00;65.70
17370;DHT22;8802;52.402;4.920;2022-08-16T11:33:33;31.10;64.60
17370;DHT22;8802;52.402;4.920;2022-08-16T11:36:00;31.10;64.70
17370;DHT22;8802;52.402;4.920;2022-08-16T11:38:28;31.10;64.20
17370;DHT22;8802;52.402;4.920;2022-08-16T11:40:57;31.10;64.00
17370;DHT22;8802;52.402;4.920;2022-08-16T11:43:29;31.20;63.50
17370;DHT22;8802;52.402;4.920;2022-08-16T11:45:59;31.20;63.30
17370;DHT22;8802;52.402;4.920;2022-08-16T11:48:28;31.20;63.90
17370;DHT22;8802;52.402;4.920;2022-08-16T11:50:56;31.20;63.70
17370;DHT22;8802;52.402;4.920;2022-08-16T11:53:23;31.20;63.50
17370;DHT22;8802;52.402;4.920;2022-08-16T11:55:51;31.20;64.30
17370;DHT22;8802;52.402;4.920;2022-08-16T11:58:19;31.30;63.00
17370;DHT22;8802;52.402;4.920;2022-08-16T12:00:47;31.30;63.00
17370;DHT22;8802;52.402;4.920;2022-08-16T12:03:15;31.30;62.10
17370;DHT22;8802;52.402;4.920;2022-08-16T12:05:44;31.40;61.60
17370;DHT22;8802;52.402;4.920;2022-08-16T12:08:11;31.40;61.30
17370;DHT22;8802;52.402;4.920;2022-08-16T12:10:40;31.50;61.10
17370;DHT22;8802;52.402;4.920;2022-08-16T12:13:08;31.50;60.00
17370;DHT22;8802;52.402;4.920;2022-08-16T12:15:35;31.60;59.60
17370;DHT22;8802;52.402;4.920;2022-08-16T12:18:04;31.70;59.80
17370;DHT22;8802;52.402;4.920;2022-08-16T12:20:38;31.80;58.80
17370;DHT22;8802;52.402;4.920;2022-08-16T12:23:06;31.90;59.10
17370;DHT22;8802;52.402;4.920;2022-08-16T12:25:34;32.00;58.70
17370;DHT22;8802;52.402;4.920;2022-08-16T12:28:04;32.00;58.40
17370;DHT22;8802;52.402;4.920;2022-08-16T12:30:35;32.10;58.00
17370;DHT22;8802;52.402;4.920;2022-08-16T12:33:05;32.10;57.50
17370;DHT22;8802;52.402;4.920;2022-08-16T12:35:38;32.10;58.00
17370;DHT22;8802;52.402;4.920;2022-08-16T12:38:05;32.20;58.30
17370;DHT22;8802;52.402;4.920;2022-08-16T12:40:36;32.20;58.40
17370;DHT22;8802;52.402;4.920;2022-08-16T12:43:05;32.20;58.70
17370;DHT22;8802;52.402;4.920;2022-08-16T12:45:34;32.20;59.20
17370;DHT22;8802;52.402;4.920;2022-08-16T12:48:04;32.20;59.80
17370;DHT22;8802;52.402;4.920;2022-08-16T12:50:48;32.20;59.70
17370;DHT22;8802;52.402;4.920;2022-08-16T12:53:15;32.10;59.80
17370;DHT22;8802;52.402;4.920;2022-08-16T12:55:42;32.10;59.90
17370;DHT22;8802;52.402;4.920;2022-08-16T12:58:10;32.10;59.90
17370;DHT22;8802;52.402;4.920;2022-08-16T13:00:37;32.10;59.80
17370;DHT22;8802;52.402;4.920;2022-08-16T13:03:06;32.00;60.00
17370;DHT22;8802;52.402;4.920;2022-08-16T13:05:34;32.00;60.30
17370;DHT22;8802;52.402;4.920;2022-08-16T13:08:06;32.00;60.60
17370;DHT22;8802;52.402;4.920;2022-08-16T13:10:33;32.00;60.30
17370;DHT22;8802;52.402;4.920;2022-08-16T13:13:00;32.00;60.40
17370;DHT22;8802;52.402;4.920;2022-08-16T13:15:27;32.00;60.60
17370;DHT22;8802;52.402;4.920;2022-08-16T13:17:54;32.00;61.70
17370;DHT22;8802;52.402;4.920;2022-08-16T13:20:25;31.90;60.70
17370;DHT22;8802;52.402;4.920;2022-08-16T13:22:57;31.90;60.60
17370;DHT22;8802;52.402;4.920;2022-08-16T13:25:26;31.90;60.90
17370;DHT22;8802;52.402;4.920;2022-08-16T13:27:54;31.80;62.00
17370;DHT22;8802;52.402;4.920;2022-08-16T13:30:21;31.70;61.10
17370;DHT22;8802;52.402;4.920;2022-08-16T13:32:50;31.70;61.10
17370;DHT22;8802;52.402;4.920;2022-08-16T13:35:17;31.70;61.10
17370;DHT22;8802;52.402;4.920;2022-08-16T13:37:45;31.60;61.40
17370;DHT22;8802;52.402;4.920;2022-08-16T13:40:13;31.50;61.40
17370;DHT22;8802;52.402;4.920;2022-08-16T13:42:39;31.50;61.70
17370;DHT22;8802;52.402;4.920;2022-08-16T13:45:08;31.50;61.90
17370;DHT22;8802;52.402;4.920;2022-08-16T13:47:35;31.50;62.00
17370;DHT22;8802;52.402;4.920;2022-08-16T13:50:03;31.50;61.90
17370;DHT22;8802;52.402;4.920;2022-08-16T13:52:30;31.40;61.80
17370;DHT22;8802;52.402;4.920;2022-08-16T13:55:00;31.40;62.30
17370;DHT22;8802;52.402;4.920;2022-08-16T13:57:27;31.30;62.10
17370;DHT22;8802;52.402;4.920;2022-08-16T13:59:54;31.30;61.90
17370;DHT22;8802;52.402;4.920;2022-08-16T14:02:21;31.20;62.20
17370;DHT22;8802;52.402;4.920;2022-08-16T14:04:48;31.20;62.10
17370;DHT22;8802;52.402;4.920;2022-08-16T14:07:15;31.20;62.50
17370;DHT22;8802;52.402;4.920;2022-08-16T14:09:42;31.10;62.20
17370;DHT22;8802;52.402;4.920;2022-08-16T14:12:17;31.10;61.40
17370;DHT22;8802;52.402;4.920;2022-08-16T14:14:45;31.10;61.70
17370;DHT22;8802;52.402;4.920;2022-08-16T14:17:12;31.10;61.50
17370;DHT22;8802;52.402;4.920;2022-08-16T14:19:39;31.00;61.10
17370;DHT22;8802;52.402;4.920;2022-08-16T14:22:06;31.00;60.80
17370;DHT22;8802;52.402;4.920;2022-08-16T14:24:34;31.00;61.30
17370;DHT22;8802;52.402;4.920;2022-08-16T14:27:01;31.00;61.60
17370;DHT22;8802;52.402;4.920;2022-08-16T14:29:29;30.90;61.90
17370;DHT22;8802;52.402;4.920;2022-08-16T14:31:57;30.90;61.90
17370;DHT22;8802;52.402;4.920;2022-08-16T14:34:24;30.90;61.90
17370;DHT22;8802;52.402;4.920;2022-08-16T14:36:50;30.80;61.90
17370;DHT22;8802;52.402;4.920;2022-08-16T14:39:17;30.80;62.40
17370;DHT22;8802;52.402;4.920;2022-08-16T14:41:46;30.70;62.90
17370;DHT22;8802;52.402;4.920;2022-08-16T14:44:13;30.60;62.90
17370;DHT22;8802;52.402;4.920;2022-08-16T14:46:41;30.60;63.20
17370;DHT22;8802;52.402;4.920;2022-08-16T14:49:08;30.60;63.30
17370;DHT22;8802;52.402;4.920;2022-08-16T14:51:35;30.60;63.90
17370;DHT22;8802;52.402;4.920;2022-08-16T14:54:02;30.60;63.80
17370;DHT22;8802;52.402;4.920;2022-08-16T14:56:29;30.50;63.90
17370;DHT22;8802;52.402;4.920;2022-08-16T14:58:56;30.50;63.80
17370;DHT22;8802;52.402;4.920;2022-08-16T15:01:24;30.50;63.40
17370;DHT22;8802;52.402;4.920;2022-08-16T15:03:52;30.50;63.70
17370;DHT22;8802;52.402;4.920;2022-08-16T15:06:19;30.50;63.70
17370;DHT22;8802;52.402;4.920;2022-08-16T15:08:46;30.40;63.90
17370;DHT22;8802;52.402;4.920;2022-08-16T15:11:12;30.50;65.00
17370;DHT22;8802;52.402;4.920;2022-08-16T15:13:39;30.40;64.00
17370;DHT22;8802;52.402;4.920;2022-08-16T15:16:06;30.40;64.20
17370;DHT22;8802;52.402;4.920;2022-08-16T15:18:33;30.40;64.30
17370;DHT22;8802;52.402;4.920;2022-08-16T15:21:03;30.40;64.50
17370;DHT22;8802;52.402;4.920;2022-08-16T15:23:31;30.40;64.70
17370;DHT22;8802;52.402;4.920;2022-08-16T15:25:58;30.30;64.90
17370;DHT22;8802;52.402;4.920;2022-08-16T15:28:25;30.30;65.10
17370;DHT22;8802;52.402;4.920;2022-08-16T15:30:52;30.30;65.20
17370;DHT22;8802;52.402;4.920;2022-08-16T15:33:21;30.20;65.30
17370;DHT22;8802;52.402;4.920;2022-08-16T15:35:49;30.20;65.80
17370;DHT22;8802;52.402;4.920;2022-08-16T15:38:18;30.20;66.10
17370;DHT22;8802;52.402;4.920;2022-08-16T15:40:46;30.20;66.60
17370;DHT22;8802;52.402;4.920;2022-08-16T15:43:13;30.20;66.90
17370;DHT22;8802;52.402;4.920;2022-08-16T15:45:40;30.10;67.10
17370;DHT22;8802;52.402;4.920;2022-08-16T15:48:24;30.10;67.30